Time;durP1;ratioP1;P1;durP2;ratioP2;P2;SDS_P1;SDS_P2;PMS_P1;PMS_P2;Temp;Humidity;BMP_temperature;BMP_pressure;BME280_temperature;BME280_humidity;BME280_pressure;Samples;Min_cycle;Max_cycle;Signal;HPM_P1;HPM_P2
2024/01/04 00:01:58;;;;;;;8.73;1.00;;;;;;;6.29;100.00;99842.56;4959213;28;20188;-68
2024/01/04 00:04:23;;;;;;;4.40;0.70;;;;;;;6.32;100.00;99848.31;4982420;28;20456;-69
2024/01/04 00:06:48;;;;;;;4.53;0.80;;;;;;;5.73;100.00;99786.63;4967507;28;20211;-68
2024/01/04 00:09:14;;;;;;;4.90;0.60;;;;;;;5.31;100.00;99746.63;4994643;28;20256;-68
2024/01/04 00:11:40;;;;;;;6.23;0.90;;;;;;;6.05;100.00;99876.63;4991226;28;20577;-68
2024/01/04 00:14:07;;;;;;;3.73;0.70;;;;;;;6.02;100.00;99847.72;4988096;28;20279;-67
2024/01/04 00:16:33;;;;;;;3.77;0.70;;;;;;;6.01;100.00;99883.31;4982625;28;20192;-68
2024/01/04 00:18:59;;;;;;;3.23;0.67;;;;;;;5.75;100.00;99848.47;4972573;28;20447;-68
2024/01/04 00:21:24;;;;;;;4.30;0.70;;;;;;;5.48;100.00;99836.78;4986238;28;20826;-68
2024/01/04 00:23:49;;;;;;;7.90;0.90;;;;;;;4.62;100.00;99703.81;4954351;28;20189;-68
2024/01/04 00:26:15;;;;;;;3.60;0.70;;;;;;;5.17;100.00;99804.16;4988563;28;20248;-67
2024/01/04 00:28:40;;;;;;;3.77;0.67;;;;;;;5.16;100.00;99818.47;4978749;28;20621;-68
2024/01/04 00:31:06;;;;;;;6.20;0.80;;;;;;;5.29;100.00;99839.03;4981580;28;20185;-68
2024/01/04 00:33:31;;;;;;;5.30;1.03;;;;;;;5.98;100.00;99941.44;4986078;28;20189;-67
2024/01/04 00:35:57;;;;;;;4.90;0.80;;;;;;;5.96;100.00;99941.66;4980040;28;20193;-68
2024/01/04 00:38:22;;;;;;;6.97;1.10;;;;;;;5.50;100.00;99928.66;4993888;28;20296;-68
2024/01/04 00:40:48;;;;;;;4.23;0.70;;;;;;;5.66;100.00;99932.91;4982262;28;20239;-68
2024/01/04 00:43:13;;;;;;;6.37;1.13;;;;;;;5.73;100.00;99956.94;4993326;28;20235;-68
2024/01/04 00:45:39;;;;;;;4.53;0.90;;;;;;;5.84;100.00;99961.75;4967855;28;20185;-68
2024/01/04 00:48:05;;;;;;;6.20;0.80;;;;;;;5.41;100.00;99900.56;4961435;28;20197;-68
2024/01/04 00:50:30;;;;;;;8.20;1.57;;;;;;;5.73;100.00;99907.22;5003566;28;20185;-67
2024/01/04 00:52:55;;;;;;;6.70;1.20;;;;;;;5.37;100.00;99929.34;4999118;28;20457;-68
2024/01/04 00:55:21;;;;;;;4.40;0.80;;;;;;;5.44;100.00;99916.13;4989369;28;20184;-68
2024/01/04 00:57:46;;;;;;;5.20;0.83;;;;;;;5.51;100.00;99959.56;5000886;28;20196;-68
2024/01/04 01:00:12;;;;;;;3.77;0.60;;;;;;;5.92;100.00;99998.91;4969237;28;20209;-68
2024/01/04 01:02:37;;;;;;;3.43;0.67;;;;;;;5.86;100.00;100020.94;4997991;28;20250;-68
2024/01/04 01:05:03;;;;;;;3.80;0.60;;;;;;;5.91;100.00;100045.16;4990462;28;20439;-68
2024/01/04 01:07:29;;;;;;;4.60;0.93;;;;;;;5.56;100.00;99986.44;4986212;28;20213;-68
2024/01/04 01:09:54;;;;;;;5.63;0.80;;;;;;;5.60;100.00;100016.97;4989561;28;20248;-68
2024/01/04 01:12:20;;;;;;;5.07;1.03;;;;;;;5.20;100.00;99927.91;4980037;28;20676;-68
2024/01/04 01:14:45;;;;;;;5.30;0.70;;;;;;;5.43;100.00;99992.41;4993527;28;20187;-68
2024/01/04 01:17:10;;;;;;;5.73;0.87;;;;;;;5.49;100.00;99980.19;4960957;28;20203;-68
2024/01/04 01:19:37;;;;;;;4.47;0.70;;;;;;;5.74;100.00;99999.31;4982770;28;20560;-68
2024/01/04 01:22:02;;;;;;;5.77;1.00;;;;;;;5.65;100.00;99982.66;4996126;28;20193;-68
2024/01/04 01:24:28;;;;;;;4.03;0.80;;;;;;;5.36;100.00;99994.19;4983875;28;20918;-68
2024/01/04 01:26:53;;;;;;;3.97;0.80;;;;;;;5.45;100.00;99965.63;4974525;28;20208;-68
2024/01/04 01:29:18;;;;;;;3.80;0.80;;;;;;;5.64;100.00;100015.59;4976441;28;20725;-68
2024/01/04 01:31:44;;;;;;;3.57;0.77;;;;;;;4.96;100.00;99897.16;4991962;28;20187;-68
2024/01/04 01:34:09;;;;;;;7.90;0.70;;;;;;;4.48;100.00;99864.81;4990117;28;20184;-68
2024/01/04 01:36:35;;;;;;;3.60;0.70;;;;;;;5.25;100.00;99914.88;4986027;28;20212;-68
2024/01/04 01:39:00;;;;;;;3.33;0.67;;;;;;;5.15;100.00;99965.69;4995906;28;20275;-68
2024/01/04 01:41:26;;;;;;;3.90;0.70;;;;;;;4.85;100.00;99948.91;4994248;28;20201;-68
2024/01/04 01:43:51;;;;;;;4.40;0.70;;;;;;;4.95;100.00;99973.41;4974100;28;20667;-68
2024/01/04 01:46:18;;;;;;;4.30;0.87;;;;;;;5.47;100.00;99990.22;4974160;28;20187;-68
2024/01/04 01:48:43;;;;;;;3.80;0.70;;;;;;;5.31;100.00;100001.06;4981276;28;20201;-68
2024/01/04 01:51:10;;;;;;;4.40;0.80;;;;;;;4.84;100.00;99915.41;4997229;28;20451;-69
2024/01/04 01:53:36;;;;;;;4.07;0.83;;;;;;;5.06;100.00;99940.19;5001736;28;20640;-68
2024/01/04 01:56:01;;;;;;;3.77;0.70;;;;;;;5.29;100.00;99979.13;4995503;28;20883;-68
2024/01/04 01:58:27;;;;;;;5.90;1.07;;;;;;;5.03;100.00;99969.81;4988143;28;20463;-68
2024/01/04 02:00:53;;;;;;;4.43;1.00;;;;;;;4.93;100.00;99953.31;4962933;28;20292;-68
2024/01/04 02:03:19;;;;;;;4.30;0.90;;;;;;;4.38;100.00;99798.72;4985124;28;20455;-68
2024/01/04 02:05:44;;;;;;;3.20;0.53;;;;;;;4.87;100.00;99911.53;4994130;28;20188;-68
2024/01/04 02:08:10;;;;;;;3.60;0.70;;;;;;;4.93;100.00;99913.47;4993410;28;20455;-69
2024/01/04 02:10:35;;;;;;;5.90;0.70;;;;;;;5.07;100.00;99933.06;4993949;28;20189;-68
2024/01/04 02:13:01;;;;;;;3.70;0.70;;;;;;;5.12;100.00;99955.44;4998224;28;20208;-69
2024/01/04 02:15:26;;;;;;;3.93;0.70;;;;;;;4.96;100.00;99934.34;4994034;28;20749;-68
2024/01/04 02:17:52;;;;;;;6.60;0.90;;;;;;;4.80;100.00;99929.22;4992387;28;20212;-68
2024/01/04 02:20:18;;;;;;;4.43;0.70;;;;;;;4.72;100.00;99861.09;4994331;28;20213;-69
2024/01/04 02:22:45;;;;;;;9.20;0.90;;;;;;;4.88;100.00;99948.53;4959426;28;20268;-69
2024/01/04 02:25:10;;;;;;;5.20;0.70;;;;;;;5.35;100.00;99986.38;4973116;28;20436;-68
2024/01/04 02:27:36;;;;;;;3.60;0.73;;;;;;;5.47;100.00;99992.03;4998111;28;20843;-68
2024/01/04 02:30:01;;;;;;;4.90;0.80;;;;;;;5.65;100.00;100008.44;4988420;28;20185;-68
2024/01/04 02:32:27;;;;;;;4.03;0.73;;;;;;;5.15;100.00;100007.38;4987601;28;20196;-68
2024/01/04 02:34:52;;;;;;;4.33;0.80;;;;;;;5.01;100.00;99989.63;4971313;28;20745;-68
2024/01/04 02:37:18;;;;;;;4.33;0.70;;;;;;;3.69;100.00;99828.09;5016583;22;20274;-77
2024/01/04 02:39:43;;;;;;;3.13;0.60;;;;;;;3.55;100.00;99803.19;5010059;28;20202;-79
2024/01/04 02:42:09;;;;;;;4.33;0.87;;;;;;;5.09;100.00;100030.22;5008896;28;20191;-77
2024/01/04 02:44:34;;;;;;;3.40;0.60;;;;;;;5.36;100.00;100079.28;5023843;23;20232;-72
2024/01/04 02:47:00;;;;;;;5.57;0.70;;;;;;;4.18;100.00;99970.97;4983701;28;20215;-73
2024/01/04 02:49:25;;;;;;;4.00;0.60;;;;;;;5.13;100.00;100092.66;5000057;28;20192;-73
2024/01/04 02:51:50;;;;;;;4.20;0.90;;;;;;;4.32;100.00;99963.25;4986483;28;20180;-72
2024/01/04 02:54:16;;;;;;;3.80;0.70;;;;;;;5.05;100.00;100062.66;5012351;28;20212;-73
2024/01/04 02:56:42;;;;;;;5.00;0.60;;;;;;;4.59;100.00;100038.84;4968686;28;20203;-72
2024/01/04 02:59:07;;;;;;;6.03;0.93;;;;;;;4.26;100.00;100017.88;4979039;28;20439;-73
2024/01/04 03:01:33;;;;;;;3.80;0.80;;;;;;;4.38;100.00;99973.97;5007522;28;20200;-72
2024/01/04 03:03:58;;;;;;;4.50;0.70;;;;;;;5.12;100.00;100146.84;5018724;28;20184;-72
2024/01/04 03:06:25;;;;;;;3.50;0.70;;;;;;;5.41;100.00;100124.78;4989423;28;20193;-73
2024/01/04 03:08:51;;;;;;;3.27;0.67;;;;;;;4.15;100.00;99999.72;5007728;28;20322;-74
2024/01/04 03:11:17;;;;;;;4.40;0.80;;;;;;;4.71;100.00;100038.22;5007690;28;20852;-72
2024/01/04 03:13:43;;;;;;;7.77;0.80;;;;;;;5.15;100.00;100105.75;5002688;28;20454;-74
2024/01/04 03:16:08;;;;;;;5.77;0.90;;;;;;;4.43;100.00;99971.59;5009461;28;20512;-73
2024/01/04 03:18:34;;;;;;;6.37;1.10;;;;;;;5.10;100.00;100068.25;4990960;28;20538;-74
2024/01/04 03:21:01;;;;;;;4.23;1.00;;;;;;;4.59;100.00;100009.63;5011096;28;20648;-73
2024/01/04 03:23:27;;;;;;;5.60;0.97;;;;;;;5.29;100.00;100073.03;4991019;28;20250;-73
2024/01/04 03:25:53;;;;;;;7.53;1.17;;;;;;;4.92;100.00;100087.22;5017275;28;20435;-74
2024/01/04 03:28:19;;;;;;;6.07;0.80;;;;;;;4.91;100.00;100065.09;4990309;28;20208;-74
2024/01/04 03:30:44;;;;;;;5.47;0.83;;;;;;;4.61;100.00;100058.91;5001182;28;20446;-72
2024/01/04 03:33:10;;;;;;;3.60;0.70;;;;;;;4.24;100.00;99926.97;4983187;28;20180;-73
2024/01/04 03:35:35;;;;;;;6.47;0.70;;;;;;;4.18;100.00;99946.25;5015060;28;20188;-72
2024/01/04 03:38:01;;;;;;;3.40;0.77;;;;;;;4.57;100.00;99987.72;4994218;28;20205;-74
2024/01/04 03:40:26;;;;;;;3.03;0.70;;;;;;;4.83;100.00;100027.16;4986991;28;20274;-72
2024/01/04 03:42:51;;;;;;;4.23;0.80;;;;;;;5.44;100.00;100129.72;4989620;28;20188;-72
2024/01/04 03:45:17;;;;;;;4.33;0.60;;;;;;;5.06;100.00;100126.25;4990977;28;20188;-73
2024/01/04 03:47:42;;;;;;;5.43;0.87;;;;;;;5.20;100.00;100148.56;5010764;28;20204;-73
2024/01/04 03:50:08;;;;;;;3.83;0.80;;;;;;;5.09;100.00;100172.94;5007620;28;20593;-73
2024/01/04 03:52:33;;;;;;;4.30;0.77;;;;;;;4.71;100.00;100088.69;5009689;28;20270;-73
2024/01/04 03:54:59;;;;;;;3.97;0.70;;;;;;;5.19;100.00;100184.97;5010996;28;20180;-73
2024/01/04 03:57:24;;;;;;;3.50;0.70;;;;;;;5.13;100.00;100147.66;4978728;28;20862;-73
2024/01/04 03:59:49;;;;;;;6.30;0.70;;;;;;;4.87;100.00;100135.56;4990107;28;20228;-73
2024/01/04 04:02:15;;;;;;;4.73;0.80;;;;;;;5.32;100.00;100215.44;5007721;28;20207;-73
2024/01/04 04:04:40;;;;;;;4.70;0.70;;;;;;;5.39;100.00;100213.72;5018225;28;20235;-73
2024/01/04 04:07:06;;;;;;;6.00;0.77;;;;;;;5.16;100.00;100190.66;4985174;28;20216;-73
2024/01/04 04:09:31;;;;;;;6.53;1.07;;;;;;;4.73;100.00;100146.97;5012911;28;20183;-74
2024/01/04 04:11:57;;;;;;;3.50;0.70;;;;;;;5.23;100.00;100220.00;5017059;28;20614;-73
2024/01/04 04:14:22;;;;;;;5.27;0.93;;;;;;;4.56;100.00;100118.88;5015150;28;20187;-73
2024/01/04 04:16:47;;;;;;;4.33;1.00;;;;;;;5.08;100.00;100230.59;5004575;28;20195;-72
2024/01/04 04:19:13;;;;;;;4.13;0.93;;;;;;;5.29;100.00;100256.50;4983542;28;20189;-73
2024/01/04 04:21:38;;;;;;;8.43;0.90;;;;;;;5.17;100.00;100244.63;4993479;28;20193;-73
2024/01/04 04:24:04;;;;;;;3.60;0.70;;;;;;;5.16;100.00;100272.25;4981902;28;20215;-73
2024/01/04 04:26:29;;;;;;;9.60;1.00;;;;;;;5.23;100.00;100283.81;4984801;28;20184;-73
2024/01/04 04:28:55;;;;;;;4.27;1.07;;;;;;;4.35;100.00;100167.31;4992405;28;20207;-73
2024/01/04 04:31:21;;;;;;;4.23;0.77;;;;;;;5.20;100.00;100292.13;5015249;28;20195;-72
2024/01/04 04:33:47;;;;;;;4.63;0.90;;;;;;;4.64;100.00;100220.59;5004196;28;20210;-74
2024/01/04 04:36:13;;;;;;;5.00;0.80;;;;;;;4.64;100.00;100279.03;5012932;28;20445;-73
2024/01/04 04:38:39;;;;;;;5.10;0.70;;;;;;;4.64;100.00;100304.78;4984023;28;20462;-73
2024/01/04 04:41:06;;;;;;;3.80;0.60;;;;;;;4.18;100.00;100233.75;4995411;28;20216;-74
2024/01/04 04:43:33;;;;;;;3.87;0.80;;;;;;;4.91;100.00;100345.97;4993558;28;20528;-72
2024/01/04 04:45:59;;;;;;;3.83;0.70;;;;;;;4.19;100.00;100287.66;4996716;28;20446;-73
2024/01/04 04:48:25;;;;;;;3.97;0.77;;;;;;;3.81;100.00;100268.84;5008288;28;20831;-73
2024/01/04 04:50:51;;;;;;;3.17;0.67;;;;;;;4.80;100.00;100357.81;5013017;28;20188;-73
2024/01/04 04:53:17;;;;;;;5.60;0.90;;;;;;;4.75;100.00;100363.66;5014874;28;20459;-73
2024/01/04 04:55:43;;;;;;;3.83;0.60;;;;;;;4.62;100.00;100310.25;4985626;28;20443;-73
2024/01/04 04:58:08;;;;;;;3.77;0.70;;;;;;;4.74;100.00;100324.81;4978648;28;20216;-73
2024/01/04 05:00:34;;;;;;;4.87;0.80;;;;;;;4.55;100.00;100281.91;4994312;28;20207;-73
2024/01/04 05:02:59;;;;;;;4.00;0.90;;;;;;;4.27;100.00;100282.34;4988859;28;20188;-74
2024/01/04 05:05:25;;;;;;;4.77;0.80;;;;;;;3.79;100.00;100173.53;4999175;28;20435;-72
2024/01/04 05:07:50;;;;;;;6.70;0.80;;;;;;;4.63;100.00;100293.31;5021222;28;20338;-74
2024/01/04 05:10:16;;;;;;;3.40;0.70;;;;;;;4.79;100.00;100329.59;5017048;28;20188;-73
2024/01/04 05:12:42;;;;;;;3.60;0.70;;;;;;;4.65;100.00;100360.38;5004780;28;20192;-73
2024/01/04 05:15:07;;;;;;;7.33;0.67;;;;;;;4.24;100.00;100274.72;5027932;28;20267;-73
2024/01/04 05:17:33;;;;;;;4.60;0.70;;;;;;;3.91;100.00;100212.97;5025740;28;20207;-73
2024/01/04 05:19:58;;;;;;;4.50;0.77;;;;;;;4.52;100.00;100358.28;5022264;28;20917;-73
2024/01/04 05:22:24;;;;;;;3.50;0.70;;;;;;;4.27;100.00;100309.72;5012964;28;20287;-73
2024/01/04 05:24:49;;;;;;;5.10;0.80;;;;;;;4.20;100.00;100295.47;5000360;28;20195;-73
2024/01/04 05:27:14;;;;;;;5.70;0.80;;;;;;;4.35;100.00;100361.16;5022358;28;21181;-73
2024/01/04 05:29:40;;;;;;;4.63;0.83;;;;;;;4.08;100.00;100292.38;4991001;28;20180;-73
2024/01/04 05:32:05;;;;;;;5.20;0.90;;;;;;;4.43;100.00;100306.19;5022609;28;20542;-73
2024/01/04 05:34:32;;;;;;;3.97;0.90;;;;;;;4.45;100.00;100375.88;5021671;28;20196;-74
2024/01/04 05:37:00;;;;;;;3.90;0.70;;;;;;;4.46;100.00;100355.47;5016258;28;20299;-74
2024/01/04 05:39:26;;;;;;;4.87;0.77;;;;;;;4.17;100.00;100401.19;4994986;28;20444;-73
2024/01/04 05:41:52;;;;;;;7.37;0.80;;;;;;;4.24;100.00;100392.34;5020908;28;20447;-74
2024/01/04 05:44:17;;;;;;;4.60;0.80;;;;;;;3.65;100.00;100256.47;5009061;28;20550;-73
2024/01/04 05:46:43;;;;;;;3.57;0.70;;;;;;;4.22;100.00;100354.56;5000550;28;20188;-73
2024/01/04 05:49:09;;;;;;;5.23;0.83;;;;;;;4.24;100.00;100370.28;5020996;28;20196;-74
2024/01/04 05:51:34;;;;;;;3.20;0.80;;;;;;;3.46;100.00;100206.44;5012990;28;20191;-73
2024/01/04 05:54:02;;;;;;;4.27;0.73;;;;;;;4.42;100.00;100380.69;5024730;28;20447;-74
2024/01/04 05:56:27;;;;;;;3.83;0.90;;;;;;;4.50;100.00;100346.97;5017026;28;20200;-73
2024/01/04 05:58:53;;;;;;;3.73;0.70;;;;;;;3.63;100.00;100247.84;5020490;28;20946;-72
2024/01/04 06:01:18;;;;;;;4.13;0.90;;;;;;;4.38;100.00;100356.31;5010951;28;20215;-72
2024/01/04 06:03:43;;;;;;;6.33;1.00;;;;;;;4.39;100.00;100357.97;4995768;28;20193;-72
2024/01/04 06:06:12;;;;;;;6.57;0.83;;;;;;;4.44;100.00;100410.59;4999682;28;20592;-72
2024/01/04 06:08:37;;;;;;;5.13;0.77;;;;;;;4.06;100.00;100318.22;4997535;28;20204;-72
2024/01/04 06:11:06;;;;;;;5.20;0.87;;;;;;;3.81;100.00;100277.63;4994071;28;20441;-72
2024/01/04 06:13:31;;;;;;;9.07;0.80;;;;;;;4.54;100.00;100403.25;4998674;28;20319;-72
2024/01/04 06:15:57;;;;;;;4.13;0.70;;;;;;;4.48;100.00;100426.03;5015943;28;20453;-72
2024/01/04 06:18:22;;;;;;;3.47;0.70;;;;;;;4.50;100.00;100463.03;5000016;28;20203;-73
2024/01/04 06:20:48;;;;;;;3.87;0.70;;;;;;;4.24;100.00;100465.88;4997409;28;20220;-72
2024/01/04 06:23:15;;;;;;;3.70;0.77;;;;;;;3.49;100.00;100291.75;5000910;28;20301;-71
2024/01/04 06:25:40;;;;;;;3.73;0.87;;;;;;;3.56;100.00;100374.16;5015982;28;20458;-72
2024/01/04 06:28:06;;;;;;;5.57;0.83;;;;;;;4.44;100.00;100484.94;4991083;28;20977;-72
2024/01/04 06:30:34;;;;;;;6.00;0.90;;;;;;;4.50;100.00;100468.34;4992643;28;21281;-72
2024/01/04 06:32:59;;;;;;;5.00;1.00;;;;;;;4.21;100.00;100434.34;5003744;28;20211;-72
2024/01/04 06:35:24;;;;;;;4.27;0.90;;;;;;;4.05;100.00;100497.06;5016765;28;20809;-72
2024/01/04 06:37:51;;;;;;;3.33;0.77;;;;;;;2.89;100.00;100266.38;5004683;28;20208;-72
2024/01/04 06:40:16;;;;;;;4.13;0.83;;;;;;;4.29;100.00;100508.69;4998845;28;20238;-72
2024/01/04 06:42:42;;;;;;;4.17;0.90;;;;;;;4.20;100.00;100497.22;5022932;28;20459;-72
2024/01/04 06:45:08;;;;;;;3.80;0.80;;;;;;;4.56;100.00;100542.03;5002321;28;20200;-72
2024/01/04 06:47:34;;;;;;;6.53;0.77;;;;;;;4.17;100.00;100497.56;5000846;28;20196;-72
2024/01/04 06:49:59;;;;;;;8.50;1.00;;;;;;;4.17;100.00;100507.34;5021962;28;20512;-73
2024/01/04 06:52:24;;;;;;;4.70;0.70;;;;;;;4.12;100.00;100581.34;5020970;28;20196;-72
2024/01/04 06:54:50;;;;;;;7.13;0.83;;;;;;;3.60;100.00;100455.03;4990030;28;20754;-72
2024/01/04 06:57:16;;;;;;;3.87;0.80;;;;;;;3.99;100.00;100545.50;4993637;28;20196;-71
2024/01/04 06:59:42;;;;;;;5.13;0.97;;;;;;;3.96;100.00;100579.47;5021359;28;20521;-72
2024/01/04 07:02:08;;;;;;;6.90;1.00;;;;;;;4.02;100.00;100568.19;4996014;28;20220;-71
2024/01/04 07:04:33;;;;;;;4.70;0.73;;;;;;;3.76;100.00;100516.09;5014047;28;21041;-72
2024/01/04 07:06:59;;;;;;;3.90;0.80;;;;;;;4.24;100.00;100572.88;4985561;28;20222;-71
2024/01/04 07:09:24;;;;;;;5.50;0.90;;;;;;;3.83;100.00;100571.97;5013827;28;20200;-72
2024/01/04 07:11:49;;;;;;;3.60;0.80;;;;;;;3.94;100.00;100584.13;5015853;28;20184;-71
2024/01/04 07:14:15;;;;;;;7.70;1.00;;;;;;;3.65;100.00;100550.88;4991516;28;20238;-70
2024/01/04 07:16:45;;;;;;;4.37;0.80;;;;;;;3.19;100.00;100515.06;4990156;28;20203;-71
2024/01/04 07:19:10;;;;;;;4.40;0.80;;;;;;;3.00;100.00;100468.41;4995975;28;20679;-72
2024/01/04 07:21:35;;;;;;;4.60;0.80;;;;;;;3.38;100.00;100520.94;5020339;28;20481;-72
2024/01/04 07:24:01;;;;;;;5.27;1.03;;;;;;;3.28;100.00;100524.69;5019768;28;20255;-72
2024/01/04 07:26:26;;;;;;;5.60;1.03;;;;;;;2.95;100.00;100490.06;5015096;28;20220;-71
2024/01/04 07:28:52;;;;;;;4.70;0.87;;;;;;;3.49;100.00;100580.78;5016280;28;20293;-72
2024/01/04 07:31:17;;;;;;;5.43;1.00;;;;;;;3.37;100.00;100489.28;4993192;28;20184;-72
2024/01/04 07:33:43;;;;;;;4.63;0.80;;;;;;;3.68;100.00;100577.06;5023522;28;20199;-72
2024/01/04 07:36:08;;;;;;;4.17;0.80;;;;;;;3.43;100.00;100532.88;4985202;28;20192;-72
2024/01/04 07:38:36;;;;;;;7.13;1.00;;;;;;;3.66;100.00;100573.75;4992428;28;20220;-73
2024/01/04 07:41:03;;;;;;;5.27;1.00;;;;;;;3.81;100.00;100609.25;5002832;28;20279;-72
2024/01/04 07:43:29;;;;;;;3.40;0.70;;;;;;;3.76;100.00;100581.56;5014807;28;20865;-72
2024/01/04 07:45:54;;;;;;;5.13;1.20;;;;;;;3.56;100.00;100610.19;4994636;28;20454;-73
2024/01/04 07:48:21;;;;;;;4.37;0.80;;;;;;;3.68;100.00;100637.25;4981259;28;20204;-72
2024/01/04 07:50:47;;;;;;;4.10;0.90;;;;;;;2.90;100.00;100495.03;5006349;28;20181;-72
2024/01/04 07:53:12;;;;;;;3.83;0.80;;;;;;;3.54;100.00;100628.06;4991693;28;20447;-71
2024/01/04 07:55:38;;;;;;;4.97;0.97;;;;;;;3.78;100.00;100646.72;4985205;28;20283;-72
2024/01/04 07:58:03;;;;;;;7.00;1.10;;;;;;;3.06;100.00;100555.22;5011891;28;20286;-71
2024/01/04 08:00:29;;;;;;;5.20;1.10;;;;;;;3.14;100.00;100593.19;5008950;28;20273;-71
2024/01/04 08:02:54;;;;;;;3.77;1.23;;;;;;;3.12;100.00;100602.28;5015552;28;20200;-72
2024/01/04 08:05:20;;;;;;;4.03;0.90;;;;;;;3.08;100.00;100595.66;5003709;28;20567;-73
2024/01/04 08:07:46;;;;;;;3.97;1.20;;;;;;;3.21;100.00;100642.94;5000640;28;20204;-73
2024/01/04 08:10:11;;;;;;;4.33;0.97;;;;;;;2.79;100.00;100556.22;4991624;28;20442;-72
2024/01/04 08:12:40;;;;;;;3.73;0.70;;;;;;;3.57;100.00;100643.66;5009196;28;20250;-71
2024/01/04 08:15:07;;;;;;;3.77;0.97;;;;;;;3.19;100.00;100618.44;4996612;28;20192;-72
2024/01/04 08:17:33;;;;;;;5.60;0.87;;;;;;;3.55;100.00;100674.81;5018202;28;20462;-72
2024/01/04 08:19:58;;;;;;;4.10;0.80;;;;;;;3.46;100.00;100651.88;5015105;28;20444;-71
2024/01/04 08:22:24;;;;;;;4.60;0.90;;;;;;;3.54;100.00;100633.38;4991360;28;20617;-72
2024/01/04 08:24:49;;;;;;;3.33;0.70;;;;;;;2.39;100.00;100510.75;4992385;28;20203;-72
2024/01/04 08:27:18;;;;;;;3.97;0.90;;;;;;;3.16;100.00;100599.19;4996319;28;20288;-72
2024/01/04 08:29:48;;;;;;;3.93;0.90;;;;;;;3.77;100.00;100665.47;4996578;28;20227;-72
2024/01/04 08:32:17;;;;;;;8.60;1.30;;;;;;;3.53;100.00;100695.34;5012406;28;21004;-72
2024/01/04 08:34:43;;;;;;;5.13;1.30;;;;;;;3.80;100.00;100673.94;4990188;28;20442;-71
2024/01/04 08:37:08;;;;;;;5.70;1.10;;;;;;;3.21;100.00;100605.81;5008538;28;20486;-72
2024/01/04 08:39:34;;;;;;;6.20;1.23;;;;;;;3.75;100.00;100724.00;4997162;28;20188;-72
2024/01/04 08:42:00;;;;;;;4.87;0.87;;;;;;;3.61;100.00;100703.34;5018815;28;20248;-72
2024/01/04 08:44:26;;;;;;;7.30;1.00;;;;;;;3.61;100.00;100661.72;5013918;28;20320;-72
2024/01/04 08:46:52;;;;;;;5.07;0.80;;;;;;;3.68;100.00;100707.06;5013109;28;20937;-72
2024/01/04 08:49:18;;;;;;;8.17;1.20;;;;;;;3.33;100.00;100665.56;5009506;28;20180;-71
2024/01/04 08:51:44;;;;;;;4.10;0.90;;;;;;;3.47;100.00;100701.25;5014462;28;20449;-71
2024/01/04 08:54:09;;;;;;;5.20;1.00;;;;;;;3.29;100.00;100645.66;4993936;28;20773;-72
2024/01/04 08:56:35;;;;;;;6.60;0.73;;;;;;;3.79;100.00;100717.41;5005155;28;20197;-72
2024/01/04 08:59:02;;;;;;;4.33;1.10;;;;;;;3.73;100.00;100719.81;4954415;28;20207;-71
2024/01/04 09:01:30;;;;;;;6.30;1.20;;;;;;;3.56;100.00;100687.91;4987286;28;20471;-72
2024/01/04 09:03:57;;;;;;;6.80;1.40;;;;;;;3.77;100.00;100726.50;4992529;28;20455;-72
2024/01/04 09:06:22;;;;;;;4.27;0.93;;;;;;;2.54;100.00;100534.03;4991079;28;20438;-71
2024/01/04 09:08:48;;;;;;;6.17;1.10;;;;;;;3.87;100.00;100744.94;5013718;28;20579;-71
2024/01/04 09:11:16;;;;;;;6.70;1.10;;;;;;;3.73;100.00;100723.34;5001834;28;20561;-72
2024/01/04 09:13:44;;;;;;;5.07;0.93;;;;;;;3.61;100.00;100706.81;5004000;28;21111;-72
2024/01/04 09:16:10;;;;;;;6.13;0.93;;;;;;;3.91;100.00;100770.19;5021096;28;20949;-72
2024/01/04 09:18:35;;;;;;;4.27;0.80;;;;;;;3.80;100.00;100765.97;4997597;28;20463;-72
2024/01/04 09:21:01;;;;;;;3.97;0.80;;;;;;;3.20;100.00;100668.63;5004480;28;20204;-72
2024/01/04 09:23:26;;;;;;;4.00;0.83;;;;;;;3.97;100.00;100769.56;5018605;28;20670;-71
2024/01/04 09:25:51;;;;;;;4.30;0.90;;;;;;;3.97;100.00;100793.44;5018714;28;20196;-72
2024/01/04 09:28:18;;;;;;;5.50;1.07;;;;;;;3.99;100.00;100844.53;4997709;28;20204;-69
2024/01/04 09:30:44;;;;;;;6.23;1.10;;;;;;;3.41;100.00;100694.75;5002260;28;20188;-70
2024/01/04 09:33:11;;;;;;;6.70;1.00;;;;;;;3.17;100.00;100703.38;5016118;28;20518;-70
2024/01/04 09:35:37;;;;;;;4.47;0.80;;;;;;;3.95;100.00;100835.22;4984941;28;20506;-71
2024/01/04 09:38:02;;;;;;;6.07;1.00;;;;;;;3.81;100.00;100839.28;5017744;28;20460;-71
2024/01/04 09:40:28;;;;;;;4.60;1.17;;;;;;;3.71;100.00;100867.72;5020300;28;20212;-72
2024/01/04 09:42:55;;;;;;;8.53;1.67;;;;;;;3.01;100.00;100698.78;5018070;28;20695;-72
2024/01/04 09:45:22;;;;;;;5.83;1.10;;;;;;;4.19;100.00;100861.91;4990956;28;20655;-72
2024/01/04 09:47:50;;;;;;;7.07;1.33;;;;;;;4.15;100.00;100849.97;5013315;28;20513;-72
2024/01/04 09:50:18;;;;;;;4.53;0.80;;;;;;;4.17;100.00;100889.63;4992238;28;20436;-72
2024/01/04 09:52:46;;;;;;;4.67;0.83;;;;;;;3.66;100.00;100815.13;5011570;28;20973;-72
2024/01/04 09:55:12;;;;;;;4.10;0.80;;;;;;;4.36;100.00;100881.44;5014149;28;20463;-71
2024/01/04 09:57:38;;;;;;;5.00;1.20;;;;;;;4.55;100.00;100935.34;4985928;28;20817;-72
2024/01/04 10:00:04;;;;;;;7.20;1.40;;;;;;;3.97;100.00;100865.09;5011215;28;20274;-72
2024/01/04 10:02:32;;;;;;;3.77;0.83;;;;;;;4.58;100.00;100943.00;4997768;28;20440;-73
2024/01/04 10:05:00;;;;;;;4.77;0.87;;;;;;;3.78;100.00;100916.53;5011346;28;20470;-72
2024/01/04 10:07:30;;;;;;;7.13;1.10;;;;;;;4.38;100.00;100935.22;4994662;28;21069;-72
2024/01/04 10:10:01;;;;;;;4.57;1.00;;;;;;;4.47;100.00;100944.09;4989440;28;20435;-72
2024/01/04 10:12:36;;;;;;;4.90;0.80;;;;;;;4.13;100.00;100898.88;4994455;28;20957;-72
2024/01/04 10:15:03;;;;;;;4.33;1.20;;;;;;;4.46;100.00;100947.75;4999210;28;21009;-73
2024/01/04 10:17:28;;;;;;;4.10;0.90;;;;;;;4.25;100.00;100959.56;5011772;28;20467;-73
2024/01/04 10:19:55;;;;;;;4.37;0.80;;;;;;;4.16;100.00;100915.31;4997191;28;20464;-72
2024/01/04 10:22:24;;;;;;;7.07;1.20;;;;;;;4.05;100.00;100960.69;4994485;28;20287;-72
2024/01/04 10:24:51;;;;;;;3.57;0.77;;;;;;;4.61;100.00;100950.66;5018954;28;20946;-72
2024/01/04 10:27:17;;;;;;;4.10;0.73;;;;;;;4.13;100.00;100909.50;5010969;28;20469;-72
2024/01/04 10:29:45;;;;;;;4.57;0.93;;;;;;;4.70;100.00;101002.84;5008323;28;20893;-72
2024/01/04 10:32:13;;;;;;;6.10;1.00;;;;;;;4.64;100.00;101022.91;5011279;28;20795;-72
2024/01/04 10:34:39;;;;;;;4.80;1.00;;;;;;;4.53;100.00;101029.28;4995760;28;20439;-71
2024/01/04 10:37:13;;;;;;;3.87;0.80;;;;;;;4.40;100.00;101034.19;5012646;28;20459;-72
2024/01/04 10:39:40;;;;;;;6.53;1.47;;;;;;;3.81;100.00;100927.66;4995374;28;20444;-73
2024/01/04 10:42:08;;;;;;;4.40;1.10;;;;;;;4.20;100.00;101019.41;4996610;28;20442;-73
2024/01/04 10:44:33;;;;;;;8.00;2.20;;;;;;;4.51;100.00;101017.16;4995614;28;20526;-72
2024/01/04 10:47:01;;;;;;;5.60;1.03;;;;;;;4.17;100.00;100951.53;4995243;28;20466;-71
2024/01/04 10:49:27;;;;;;;12.07;4.37;;;;;;;4.50;100.00;101013.66;5014347;28;20188;-73
2024/01/04 10:52:02;;;;;;;10.93;4.87;;;;;;;4.42;100.00;101036.69;5013942;28;20457;-72
2024/01/04 10:54:32;;;;;;;21.43;8.47;;;;;;;4.29;100.00;101031.78;5017938;28;20446;-73
2024/01/04 10:57:02;;;;;;;7.30;2.07;;;;;;;3.79;100.00;100988.03;5006939;28;20467;-72
2024/01/04 10:59:29;;;;;;;9.00;1.30;;;;;;;4.40;100.00;101018.25;4991434;28;20442;-72
2024/01/04 11:01:58;;;;;;;14.60;6.23;;;;;;;4.49;100.00;101024.47;5001371;28;20435;-72
2024/01/04 11:04:25;;;;;;;11.50;4.23;;;;;;;4.54;100.00;101003.56;5010226;28;20945;-74
2024/01/04 11:06:52;;;;;;;14.87;5.33;;;;;;;4.58;100.00;101030.69;4983445;28;20447;-71
2024/01/04 11:09:22;;;;;;;10.97;4.60;;;;;;;3.90;100.00;100943.66;4987484;28;20455;-70
2024/01/04 11:11:54;;;;;;;9.40;2.43;;;;;;;4.23;100.00;101021.75;5015010;28;20471;-71
2024/01/04 11:14:20;;;;;;;7.50;3.33;;;;;;;4.23;100.00;101048.31;5010288;28;20803;-71
2024/01/04 11:17:11;;;;;;;7.03;1.93;;;;;;;4.22;100.00;101097.94;4995333;28;20545;-71
2024/01/04 11:20:08;;;;;;;6.20;1.80;;;;;;;4.69;100.00;101081.75;5009923;28;20443;-73
2024/01/04 11:23:04;;;;;;;3.70;0.90;;;;;;;4.78;100.00;101085.28;4999170;28;20451;-71